createdAt,value
2022-08-17T00:02:25.197Z,100984.63
2022-08-17T00:04:54.163Z,100986.13
2022-08-17T00:07:20.741Z,100982.47
2022-08-17T00:09:47.298Z,100972.25
2022-08-17T00:12:42.177Z,100973.69
2022-08-17T00:15:01.104Z,100958.47
2022-08-17T00:17:27.959Z,100949.91
2022-08-17T00:19:54.530Z,100952.47
2022-08-17T00:22:31.566Z,100955.69
2022-08-17T00:25:05.353Z,100949.09
2022-08-17T00:27:31.922Z,100949.34
2022-08-17T00:29:58.590Z,100946.34
2022-08-17T00:33:12.122Z,100948.50
2022-08-17T00:35:17.613Z,100942.78
2022-08-17T00:37:44.470Z,100937.06
2022-08-17T00:40:13.915Z,100916.09
2022-08-17T00:42:41.713Z,100911.84
2022-08-17T00:45:13.865Z,100913.16
2022-08-17T00:47:40.525Z,100920.00
2022-08-17T00:50:10.475Z,100913.63
2022-08-17T00:52:42.568Z,100908.91
2022-08-17T00:55:10.780Z,100917.00
2022-08-17T00:57:42.706Z,100926.22
2022-08-17T01:00:16.021Z,100923.44
2022-08-17T01:02:48.697Z,100927.44
2022-08-17T01:05:23.739Z,100923.16
2022-08-17T01:07:53.032Z,100924.22
2022-08-17T01:10:57.486Z,100919.28
2022-08-17T01:13:11.242Z,100911.38
2022-08-17T01:15:46.425Z,100913.50
2022-08-17T01:18:13.940Z,100903.06
2022-08-17T01:20:48.493Z,100911.38
2022-08-17T01:23:20.499Z,100915.88
2022-08-17T01:25:54.208Z,100910.53
2022-08-17T01:28:33.545Z,100905.91
2022-08-17T01:31:12.570Z,100908.13
2022-08-17T01:33:39.146Z,100902.16
2022-08-17T01:36:07.622Z,100893.38
2022-08-17T01:38:38.655Z,100901.28
2022-08-17T01:41:12.405Z,100898.09
2022-08-17T01:43:50.987Z,100900.03
2022-08-17T01:46:24.316Z,100902.16
2022-08-17T01:48:51.556Z,100905.59
2022-08-17T01:51:19.995Z,100903.84
2022-08-17T01:53:53.191Z,100891.06
2022-08-17T01:56:23.322Z,100901.28
2022-08-17T01:58:50.497Z,100909.84
2022-08-17T02:01:20.638Z,100902.63
2022-08-17T02:03:59.123Z,100906.66
2022-08-17T02:06:44.974Z,100911.59
2022-08-17T02:09:16.498Z,100923.31
2022-08-17T02:11:44.287Z,100910.72
2022-08-17T02:14:12.285Z,100915.44
2022-08-17T02:16:41.029Z,100903.09
2022-08-17T02:19:11.795Z,100895.22
2022-08-17T02:21:39.540Z,100907.56
2022-08-17T02:24:10.926Z,100898.00
2022-08-17T02:26:39.914Z,100908.22
2022-08-17T02:29:08.604Z,100897.59
2022-08-17T02:31:35.578Z,100895.88
2022-08-17T02:34:04.093Z,100903.16
2022-08-17T02:36:35.371Z,100896.38
2022-08-17T02:39:08.133Z,100896.66
2022-08-17T02:41:38.123Z,100902.88
2022-08-17T02:44:05.960Z,100908.88
2022-08-17T02:46:32.642Z,100893.97
2022-08-17T02:48:59.856Z,100908.31
2022-08-17T02:51:27.114Z,100889.34
2022-08-17T02:53:53.628Z,100901.06
2022-08-17T02:56:40.144Z,100885.53
2022-08-17T02:59:08.977Z,100890.63
2022-08-17T03:01:35.584Z,100891.06
2022-08-17T03:04:02.212Z,100885.34
2022-08-17T03:06:29.167Z,100876.41
2022-08-17T03:08:56.469Z,100862.09
2022-08-17T03:11:23.562Z,100871.50
2022-08-17T03:13:50.237Z,100853.19
2022-08-17T03:16:16.860Z,100867.22
2022-08-17T03:18:43.467Z,100847.25
2022-08-17T03:21:10.009Z,100861.06
2022-08-17T03:23:41.242Z,100864.47
2022-08-17T03:26:12.296Z,100869.63
2022-08-17T03:28:42.342Z,100869.84
2022-08-17T03:31:08.877Z,100867.06
2022-08-17T03:33:35.529Z,100866.00
2022-08-17T03:36:02.058Z,100870.47
2022-08-17T03:38:28.581Z,100878.78
2022-08-17T03:40:59.491Z,100871.56
2022-08-17T03:43:33.455Z,100882.66
2022-08-17T03:46:34.333Z,100877.94
2022-08-17T03:49:25.692Z,100866.84
2022-08-17T03:52:14.697Z,100867.91
2022-08-17T03:55:01.707Z,100874.56
2022-08-17T03:57:29.112Z,100880.09
2022-08-17T03:59:56.408Z,100888.19
2022-08-17T04:02:30.068Z,100889.03
2022-08-17T04:04:57.352Z,100900.34
2022-08-17T04:07:27.567Z,100919.13
2022-08-17T04:09:54.643Z,100930.00
2022-08-17T04:12:30.648Z,100929.56
2022-08-17T04:14:57.412Z,100932.97
2022-08-17T04:17:26.354Z,100926.13
2022-08-17T04:19:56.096Z,100931.25
2022-08-17T04:22:30.666Z,100929.13
2022-08-17T04:25:02.513Z,100928.03
2022-08-17T04:27:29.079Z,100939.56
2022-08-17T04:29:56.210Z,100931.47
2022-08-17T04:33:05.526Z,100930.78
2022-08-17T04:35:10.006Z,100929.09
2022-08-17T04:37:36.564Z,100937.41
2022-08-17T04:40:22.601Z,100937.03
2022-08-17T04:43:18.670Z,100940.22
2022-08-17T04:46:01.802Z,100938.13
2022-08-17T04:48:39.626Z,100941.06
2022-08-17T04:51:21.705Z,100931.03
2022-08-17T04:53:54.111Z,100944.06
2022-08-17T04:56:22.759Z,100946.22
2022-08-17T04:58:50.889Z,100941.28
2022-08-17T05:01:23.173Z,100942.69
2022-08-17T05:03:50.204Z,100931.88
2022-08-17T05:06:19.271Z,100956.81
2022-08-17T05:08:45.826Z,100982.41
2022-08-17T05:11:12.371Z,100974.94
2022-08-17T05:13:38.959Z,100966.84
2022-08-17T05:16:06.751Z,100982.84
2022-08-17T05:18:37.273Z,100972.63
2022-08-17T05:21:04.495Z,100953.63
2022-08-17T05:23:42.070Z,100956.44
2022-08-17T05:26:22.008Z,100960.91
2022-08-17T05:28:52.632Z,100954.72
2022-08-17T05:31:21.027Z,100967.75
2022-08-17T05:33:49.578Z,100950.47
2022-08-17T05:36:41.962Z,100945.56
2022-08-17T05:39:06.622Z,100954.09
2022-08-17T05:41:33.159Z,100952.34
2022-08-17T05:43:59.811Z,100948.94
2022-08-17T05:46:41.998Z,100943.56
2022-08-17T05:49:09.563Z,100936.16
2022-08-17T05:52:00.983Z,100936.59
2022-08-17T05:54:33.458Z,100935.88
2022-08-17T05:57:21.629Z,100937.31
2022-08-17T06:02:50.763Z,100915.03
2022-08-17T06:05:54.213Z,100935.16
2022-08-17T06:08:34.062Z,100937.75
2022-08-17T06:11:22.872Z,100931.03
2022-08-17T06:14:15.032Z,100935.19
2022-08-17T06:16:50.968Z,100934.53
2022-08-17T06:19:40.775Z,100941.09
2022-08-17T06:22:12.096Z,100946.06
2022-08-17T06:24:48.465Z,100938.00
2022-08-17T06:27:53.620Z,100942.00
2022-08-17T06:30:26.363Z,100956.50
2022-08-17T06:32:55.875Z,100958.59
2022-08-17T06:35:34.131Z,100966.81
2022-08-17T06:38:37.862Z,100980.53
2022-08-17T06:41:31.793Z,100992.03
2022-08-17T06:44:47.576Z,100990.44
2022-08-17T06:47:28.609Z,100983.22
2022-08-17T06:50:18.427Z,100989.97
2022-08-17T06:52:57.607Z,100981.53
2022-08-17T06:55:37.874Z,100991.78
2022-08-17T06:58:16.235Z,100994.00
2022-08-17T07:00:47.119Z,100987.16
2022-08-17T07:03:49.835Z,100993.16
2022-08-17T07:06:20.942Z,100991.31
2022-08-17T07:11:23.617Z,100998.06
2022-08-17T07:14:16.966Z,100988.25
2022-08-17T07:16:50.758Z,100997.66
2022-08-17T07:19:22.480Z,101000.88
2022-08-17T07:22:01.130Z,101003.91
2022-08-17T07:24:41.507Z,101008.41
2022-08-17T07:27:16.146Z,101009.16
2022-08-17T07:29:47.831Z,101003.22
2022-08-17T07:32:18.607Z,101013.50
2022-08-17T07:35:16.137Z,101016.88
2022-08-17T07:37:53.071Z,101022.56
2022-08-17T07:40:24.733Z,101016.16
2022-08-17T07:43:26.353Z,101019.00
2022-08-17T07:46:29.940Z,101026.22
2022-08-17T07:49:03.687Z,101016.78
2022-08-17T07:51:55.598Z,101025.13
2022-08-17T07:54:36.877Z,101032.84
2022-08-17T07:57:12.892Z,101033.06
2022-08-17T08:00:01.302Z,101029.22
2022-08-17T08:02:40.254Z,101031.72
2022-08-17T08:05:46.619Z,101035.34
2022-08-17T08:08:42.809Z,101043.84
2022-08-17T08:11:12.580Z,101053.84
2022-08-17T08:13:43.854Z,101053.34
2022-08-17T08:16:13.739Z,101052.06
2022-08-17T08:18:55.338Z,101061.28
2022-08-17T08:21:52.931Z,101059.66
2022-08-17T08:24:41.066Z,101046.84
2022-08-17T08:27:32.771Z,101048.00
2022-08-17T08:30:14.410Z,101043.72
2022-08-17T08:32:54.107Z,101055.09
2022-08-17T08:35:26.629Z,101053.44
2022-08-17T08:38:24.819Z,101048.75
2022-08-17T08:40:54.825Z,101048.41
2022-08-17T08:43:43.432Z,101040.19
2022-08-17T08:46:30.968Z,101040.97
2022-08-17T08:49:14.466Z,101035.91
2022-08-17T08:52:04.940Z,101020.53
2022-08-17T08:54:40.722Z,101013.13
2022-08-17T08:57:33.030Z,101004.41
2022-08-17T09:00:15.611Z,101018.00
2022-08-17T09:03:04.110Z,101044.88
2022-08-17T09:06:03.817Z,101060.84
2022-08-17T09:08:55.561Z,101058.03
2022-08-17T09:12:01.266Z,101056.16
2022-08-17T09:14:45.133Z,101054.38
2022-08-17T09:17:21.697Z,101045.06
2022-08-17T09:19:48.162Z,101029.13
2022-08-17T09:22:36.315Z,101006.97
2022-08-17T09:25:12.162Z,101015.09
2022-08-17T09:28:01.291Z,101018.97
2022-08-17T09:30:41.226Z,101028.69
2022-08-17T09:33:12.872Z,101038.66
2022-08-17T09:35:48.158Z,101045.31
2022-08-17T09:38:52.320Z,101040.44
2022-08-17T09:41:28.406Z,101046.38
2022-08-17T09:44:01.059Z,101047.19
2022-08-17T09:46:38.761Z,101061.31
2022-08-17T09:49:31.517Z,101062.13
2022-08-17T09:52:16.352Z,101069.34
2022-08-17T09:54:45.737Z,101073.22
2022-08-17T09:57:31.603Z,101075.16
2022-08-17T10:00:16.053Z,101081.44
2022-08-17T10:02:57.925Z,101097.72
2022-08-17T10:05:59.932Z,101105.31
2022-08-17T10:08:52.582Z,101117.00
2022-08-17T10:11:44.873Z,101126.19
2022-08-17T10:14:36.514Z,101132.25
2022-08-17T10:17:15.980Z,101149.09
2022-08-17T10:20:13.768Z,101154.75
2022-08-17T10:23:05.428Z,101149.88
2022-08-17T10:25:55.856Z,101142.06
2022-08-17T10:28:30.209Z,101144.69
2022-08-17T10:31:33.165Z,101142.16
2022-08-17T10:34:23.736Z,101155.38
2022-08-17T10:37:14.816Z,101149.25
2022-08-17T10:40:19.025Z,101150.84
2022-08-17T10:42:51.667Z,101149.66
2022-08-17T10:45:29.518Z,101151.91
2022-08-17T10:48:07.455Z,101156.84
2022-08-17T10:50:58.610Z,101162.47
2022-08-17T10:53:43.555Z,101149.06
2022-08-17T10:56:16.271Z,101140.97
2022-08-17T10:58:50.387Z,101128.22
2022-08-17T11:01:21.196Z,101113.06
2022-08-17T11:03:57.751Z,101105.69
2022-08-17T11:06:42.009Z,101101.03
2022-08-17T11:09:52.126Z,101105.06
2022-08-17T11:12:49.044Z,101095.00
2022-08-17T11:15:24.677Z,101080.94
2022-08-17T11:18:21.158Z,101080.09
2022-08-17T11:20:56.883Z,101083.78
2022-08-17T11:23:48.436Z,101081.88
2022-08-17T11:26:29.388Z,101093.50
2022-08-17T11:29:02.185Z,101090.59
2022-08-17T11:31:39.309Z,101096.19
2022-08-17T11:34:18.706Z,101104.09
2022-08-17T11:36:51.831Z,101110.75
2022-08-17T11:39:34.022Z,101112.88
2022-08-17T11:42:05.978Z,101115.91
2022-08-17T11:44:50.751Z,101115.25
2022-08-17T11:48:16.017Z,101110.81
2022-08-17T11:51:05.123Z,101115.53
2022-08-17T11:53:37.623Z,101125.38
2022-08-17T11:56:09.562Z,101123.25
2022-08-17T11:58:45.034Z,101135.22
2022-08-17T12:01:41.896Z,101136.94
2022-08-17T12:04:22.750Z,101146.94
2022-08-17T12:06:54.581Z,101163.41
2022-08-17T12:09:25.023Z,101165.38
2022-08-17T12:12:13.320Z,101172.63
2022-08-17T12:17:40.863Z,101167.94
2022-08-17T12:20:15.677Z,101171.16
2022-08-17T12:23:00.904Z,101172.22
2022-08-17T12:25:45.931Z,101173.03
2022-08-17T12:28:25.857Z,101180.53
2022-08-17T12:30:53.011Z,101179.06
2022-08-17T12:33:24.504Z,101184.59
2022-08-17T12:36:03.067Z,101177.97
2022-08-17T12:38:34.690Z,101180.72
2022-08-17T12:41:25.291Z,101185.03
2022-08-17T12:44:02.261Z,101179.50
2022-08-17T12:46:42.945Z,101179.72
2022-08-17T12:49:22.642Z,101188.69
2022-08-17T12:51:51.324Z,101192.94
2022-08-17T12:54:59.803Z,101186.97
2022-08-17T12:57:35.153Z,101188.50
2022-08-17T13:00:21.015Z,101177.81
2022-08-17T13:02:51.747Z,101170.13
2022-08-17T13:05:39.353Z,101164.56
2022-08-17T13:08:24.552Z,101168.84
2022-08-17T13:11:06.410Z,101162.63
2022-08-17T13:13:36.389Z,101169.88
2022-08-17T13:16:10.305Z,101180.56
2022-08-17T13:18:39.196Z,101179.72
2022-08-17T13:21:23.797Z,101179.50
2022-08-17T13:24:03.622Z,101171.38
2022-08-17T13:26:35.510Z,101175.66
2022-08-17T13:29:06.029Z,101167.13
2022-08-17T13:31:51.165Z,101173.09
2022-08-17T13:34:33.328Z,101163.50
2022-08-17T13:37:18.795Z,101163.50
2022-08-17T13:39:48.410Z,101157.50
2022-08-17T13:42:33.815Z,101155.56
2022-08-17T13:45:35.307Z,101153.19
2022-08-17T13:48:10.894Z,101144.91
2022-08-17T13:51:03.963Z,101144.69
2022-08-17T13:53:47.569Z,101146.00
2022-08-17T13:56:38.386Z,101135.34
2022-08-17T13:59:53.380Z,101109.72
2022-08-17T14:02:12.382Z,101117.88
2022-08-17T14:04:43.982Z,101108.03
2022-08-17T14:07:13.277Z,101113.59
2022-08-17T14:09:48.942Z,101114.84
2022-08-17T14:12:18.089Z,101112.06
2022-08-17T14:14:49.627Z,101110.59
2022-08-17T14:17:18.541Z,101108.25
2022-08-17T14:19:45.583Z,101107.38
2022-08-17T14:22:24.298Z,101112.72
2022-08-17T14:24:53.458Z,101108.69
2022-08-17T14:27:21.367Z,101113.56
2022-08-17T14:29:54.458Z,101112.28
2022-08-17T14:32:28.227Z,101108.22
2022-08-17T14:34:58.532Z,101114.44
2022-08-17T14:37:28.641Z,101120.81
2022-08-17T14:40:06.883Z,101124.88
2022-08-17T14:42:42.480Z,101134.94
2022-08-17T14:45:29.862Z,101132.78
2022-08-17T14:48:11.680Z,101124.63
2022-08-17T14:50:43.342Z,101119.72
2022-08-17T14:53:13.844Z,101113.72
2022-08-17T14:55:47.129Z,101121.84
2022-08-17T14:58:16.762Z,101117.47
2022-08-17T15:00:46.208Z,101120.31
2022-08-17T15:03:16.638Z,101127.06
2022-08-17T15:06:05.775Z,101123.69
2022-08-17T15:08:32.697Z,101121.00
2022-08-17T15:11:02.013Z,101130.91
2022-08-17T15:13:31.711Z,101129.00
2022-08-17T15:16:00.400Z,101130.00
2022-08-17T15:18:29.294Z,101129.41
2022-08-17T15:20:57.262Z,101129.09
2022-08-17T15:23:26.449Z,101128.09
2022-08-17T15:25:54.611Z,101118.25
2022-08-17T15:28:25.087Z,101125.50
2022-08-17T15:30:52.894Z,101113.75
2022-08-17T15:33:24.044Z,101131.88
2022-08-17T15:35:52.037Z,101123.34
2022-08-17T15:38:18.590Z,101136.53
2022-08-17T15:40:47.649Z,101142.28
2022-08-17T15:43:28.218Z,101130.31
2022-08-17T15:46:04.488Z,101123.06
2022-08-17T15:48:42.673Z,101136.03
2022-08-17T15:51:38.445Z,101136.66
2022-08-17T15:54:18.735Z,101134.09
2022-08-17T15:57:00.163Z,101132.38
2022-08-17T15:59:52.059Z,101127.41
2022-08-17T16:03:46.051Z,101127.19
2022-08-17T16:05:25.299Z,101125.03
2022-08-17T16:07:55.862Z,101121.16
2022-08-17T16:10:34.886Z,101115.81
2022-08-17T16:13:04.225Z,101121.81
2022-08-17T16:15:33.037Z,101124.16
2022-08-17T16:18:00.791Z,101113.31
2022-08-17T16:20:27.633Z,101119.75
2022-08-17T16:22:54.970Z,101113.97
2022-08-17T16:25:51.951Z,101098.22
2022-08-17T16:28:15.148Z,101107.19
2022-08-17T16:30:42.101Z,101127.25
2022-08-17T16:33:11.399Z,101134.94
2022-08-17T16:35:41.943Z,101133.22
2022-08-17T16:38:09.511Z,101134.53
2022-08-17T16:40:36.453Z,101131.16
2022-08-17T16:43:04.280Z,101139.97
2022-08-17T16:45:36.360Z,101124.00
2022-08-17T16:48:03.265Z,101130.81
2022-08-17T16:50:30.142Z,101127.88
2022-08-17T16:53:16.240Z,101110.16
2022-08-17T16:55:44.030Z,101120.63
2022-08-17T16:58:10.990Z,101108.06
2022-08-17T17:00:42.329Z,101126.63
2022-08-17T17:03:20.171Z,101117.25
2022-08-17T17:05:58.050Z,101137.97
2022-08-17T17:08:30.397Z,101137.34
2022-08-17T17:11:10.282Z,101116.81
2022-08-17T17:13:49.569Z,101122.16
2022-08-17T17:16:53.289Z,101131.59
2022-08-17T17:19:42.948Z,101131.59
2022-08-17T17:22:26.170Z,101136.06
2022-08-17T17:25:15.996Z,101146.31
2022-08-17T17:28:07.897Z,101149.31
2022-08-17T17:30:58.185Z,101150.38
2022-08-17T17:33:52.496Z,101149.75
2022-08-17T17:36:31.991Z,101147.41
2022-08-17T17:39:05.795Z,101150.84
2022-08-17T17:41:47.182Z,101157.06
2022-08-17T17:44:20.303Z,101165.84
2022-08-17T17:46:58.813Z,101164.97
2022-08-17T17:49:38.202Z,101175.88
2022-08-17T17:52:36.596Z,101179.31
2022-08-17T17:55:17.504Z,101181.44
2022-08-17T17:58:06.235Z,101182.31
2022-08-17T18:01:01.944Z,101191.47
2022-08-17T18:03:59.947Z,101171.63
2022-08-17T18:06:42.406Z,101184.88
2022-08-17T18:09:34.799Z,101184.00
2022-08-17T18:12:12.185Z,101181.69
2022-08-17T18:15:08.342Z,101181.84
2022-08-17T18:17:37.809Z,101174.19
2022-08-17T18:20:08.434Z,101169.06
2022-08-17T18:22:40.444Z,101179.28
2022-08-17T18:25:45.323Z,101177.16
2022-08-17T18:28:36.973Z,101174.16
2022-08-17T18:31:21.125Z,101169.03
2022-08-17T18:33:51.535Z,101171.59
2022-08-17T18:36:29.573Z,101173.31
2022-08-17T18:39:21.162Z,101173.06
2022-08-17T18:41:54.009Z,101169.88
2022-08-17T18:44:35.615Z,101172.44
2022-08-17T18:47:06.084Z,101170.28
2022-08-17T18:49:35.178Z,101157.25
2022-08-17T18:52:26.023Z,101155.13
2022-08-17T18:55:08.980Z,101148.88
2022-08-17T18:57:48.958Z,101158.69
2022-08-17T19:00:30.602Z,101165.91
2022-08-17T19:03:01.825Z,101169.50
2022-08-17T19:05:28.377Z,101187.66
2022-08-17T19:08:13.602Z,101195.53
2022-08-17T19:10:46.084Z,101209.38
2022-08-17T19:13:36.826Z,101207.66
2022-08-17T19:16:24.982Z,101219.59
2022-08-17T19:19:14.740Z,101222.16
2022-08-17T19:21:48.043Z,101234.53
2022-08-17T19:24:26.513Z,101244.78
2022-08-17T19:27:00.965Z,101253.75
2022-08-17T19:29:46.242Z,101253.56
2022-08-17T19:32:16.419Z,101256.97
2022-08-17T19:34:44.469Z,101255.97
2022-08-17T19:37:20.782Z,101251.06
2022-08-17T19:40:00.786Z,101244.47
2022-08-17T19:42:33.967Z,101243.59
2022-08-17T19:45:00.523Z,101231.66
2022-08-17T19:47:55.381Z,101233.78
2022-08-17T19:50:38.279Z,101217.53
2022-08-17T19:53:18.548Z,101214.53
2022-08-17T19:56:08.349Z,101215.34
2022-08-17T19:59:05.876Z,101217.22
2022-08-17T20:01:45.347Z,101222.53
2022-08-17T20:04:26.807Z,101234.91
2022-08-17T20:07:12.107Z,101242.34
2022-08-17T20:09:48.024Z,101238.06
2022-08-17T20:12:19.321Z,101234.44
2022-08-17T20:15:03.298Z,101230.38
2022-08-17T20:17:35.113Z,101228.88
2022-08-17T20:20:19.973Z,101242.50
2022-08-17T20:22:52.723Z,101242.91
2022-08-17T20:25:58.520Z,101248.25
2022-08-17T20:28:31.674Z,101242.50
2022-08-17T20:31:00.927Z,101238.25
2022-08-17T20:33:34.493Z,101236.31
2022-08-17T20:36:11.644Z,101217.94
2022-08-17T20:38:49.311Z,101234.81
2022-08-17T20:41:28.208Z,101219.44
2022-08-17T20:43:57.510Z,101226.47
2022-08-17T20:46:36.359Z,101231.38
2022-08-17T20:49:08.849Z,101225.19
2022-08-17T20:52:01.489Z,101214.28
2022-08-17T20:54:53.636Z,101216.63
2022-08-17T20:57:32.353Z,101217.88
2022-08-17T21:00:18.214Z,101216.16
2022-08-17T21:02:50.390Z,101227.44
2022-08-17T21:06:00.053Z,101232.13
2022-08-17T21:08:45.810Z,101224.25
2022-08-17T21:12:02.148Z,101219.84
2022-08-17T21:15:03.809Z,101219.41
2022-08-17T21:17:56.507Z,101211.91
2022-08-17T21:20:37.745Z,101235.63
2022-08-17T21:23:13.346Z,101243.75
2022-08-17T21:26:15.643Z,101245.25
2022-08-17T21:29:29.893Z,101233.31
2022-08-17T21:32:05.409Z,101239.69
2022-08-17T21:34:44.410Z,101234.38
2022-08-17T21:37:29.411Z,101242.69
2022-08-17T21:40:22.236Z,101245.84
2022-08-17T21:42:53.952Z,101251.63
2022-08-17T21:45:26.001Z,101257.84
2022-08-17T21:48:14.378Z,101256.56
2022-08-17T21:50:43.834Z,101257.03
2022-08-17T21:53:22.447Z,101252.13
2022-08-17T21:55:50.320Z,101262.56
2022-08-17T21:58:34.400Z,101257.03
2022-08-17T22:01:20.079Z,101252.97
2022-08-17T22:04:17.996Z,101249.56
2022-08-17T22:06:52.502Z,101245.28
2022-08-17T22:09:45.228Z,101244.59
2022-08-17T22:12:20.419Z,101244.56
2022-08-17T22:15:06.062Z,101253.13
2022-08-17T22:17:36.006Z,101257.81
2022-08-17T22:20:14.208Z,101268.41
2022-08-17T22:23:08.750Z,101271.81
2022-08-17T22:26:01.803Z,101279.00
2022-08-17T22:28:45.841Z,101277.72
2022-08-17T22:31:56.326Z,101277.28
2022-08-17T22:34:23.033Z,101284.53
2022-08-17T22:36:51.934Z,101276.00
2022-08-17T22:39:23.268Z,101282.22
2022-08-17T22:42:02.339Z,101282.69
2022-08-17T22:44:48.006Z,101285.03
2022-08-17T22:47:14.460Z,101282.47
2022-08-17T22:50:04.835Z,101279.50
2022-08-17T22:53:02.687Z,101286.53
2022-08-17T22:55:52.216Z,101296.38
2022-08-17T22:58:40.369Z,101285.09
2022-08-17T23:01:35.491Z,101290.63
2022-08-17T23:04:05.746Z,101278.69
2022-08-17T23:06:34.599Z,101289.56
2022-08-17T23:09:05.826Z,101291.47
2022-08-17T23:11:50.496Z,101282.53
2022-08-17T23:14:19.805Z,101271.84
2022-08-17T23:16:47.554Z,101276.50
2022-08-17T23:19:16.483Z,101284.63
2022-08-17T23:21:46.533Z,101283.97
2022-08-17T23:24:20.999Z,101280.53
2022-08-17T23:26:57.398Z,101257.81
2022-08-17T23:29:24.829Z,101281.31
2022-08-17T23:31:52.301Z,101257.56
2022-08-17T23:34:19.034Z,101286.03
2022-08-17T23:36:51.274Z,101277.47
2022-08-17T23:39:27.641Z,101280.03
2022-08-17T23:41:56.830Z,101279.81
2022-08-17T23:44:23.659Z,101284.50
2022-08-17T23:46:52.022Z,101288.97
2022-08-17T23:49:21.645Z,101286.13
2022-08-17T23:51:48.830Z,101290.03
2022-08-17T23:54:29.883Z,101300.91
2022-08-17T23:56:56.630Z,101293.00
2022-08-17T23:59:27.488Z,101289.19
